Flight Track Log - Related Links

Times and Time Zones

All times are in EDT time to prevent confusion due to time zone crossing. See the N601AA flight status page for this flight to view local times or setup timezone preferences in your user account.

Time Position Orientation Groundspeed Altitude Reporting Facility
EDT Latitude Longitude Course Direction KTS MPH feet Rate Location/Type
Wed 05:23:24 PM 47.6478 -117.4972 77° East 198 228 4,600  Level Seattle Center
Wed 05:24:25 PM 47.6642 -117.3942 77° East 275 316 8,200 3,295 Climbing Seattle Center
Wed 05:25:26 PM 47.5861 -117.3339 152° Southeast 323 372 11,300 3,024 Climbing Seattle Center
Wed 05:26:28 PM 47.4942 -117.2933 163° South 341 392 14,400 2,780 Climbing Seattle Center
Wed 05:27:29 PM 47.3986 -117.2453 161° South 359 413 17,000 2,311 Climbing Seattle Center
Wed 05:28:30 PM 47.2914 -117.1928 162° South 402 463 19,100 2,049 Climbing Seattle Center
Wed 05:29:32 PM 47.1831 -117.1375 161° South 412 474 21,200 2,244 Climbing Seattle Center
Wed 05:30:33 PM 47.0717 -117.0817 161° South 420 483 23,700 2,311 Climbing Seattle Center
Wed 05:31:34 PM 46.9600 -117.0297 162° South 421 484 25,900 2,115 Climbing Seattle Center
Wed 05:32:35 PM 46.8439 -116.9731 162° South 435 501 28,000 1,854 Climbing Seattle Center
Wed 05:33:37 PM 46.7283 -116.9197 162° South 436 502 29,700 1,317 Climbing Seattle Center
Wed 05:34:38 PM 46.6081 -116.8606 161° South 456 525 30,700 1,082 Climbing Seattle Center
Wed 05:35:39 PM 46.4575 -116.7892 162° South 471 542 31,900 1,082 Climbing Seattle Center
Wed 05:36:40 PM 46.3281 -116.7306 163° South 485 558 32,900 927 Climbing Seattle Center
Wed 05:37:42 PM 46.1989 -116.6700 162° South 488 562 33,800 976 Climbing Seattle Center
Wed 05:38:43 PM 46.0675 -116.6103 162° South 498 573 34,900 1,279 Climbing Seattle Center
Wed 05:39:44 PM 45.9406 -116.5531 163° South 481 554 36,400 1,268 Climbing Seattle Center
Wed 05:40:46 PM 45.8164 -116.4964 162° South 473 544 37,500 927 Climbing Seattle Center
Wed 05:41:47 PM 45.6917 -116.4417 163° South 471 542 38,300 836 Climbing Seattle Center
Wed 05:42:48 PM 45.5586 -116.3808 162° South 469 540 39,200 780 Climbing Seattle Center
Wed 05:43:50 PM 45.4356 -116.3261 163° South 465 535 39,900 878 Climbing Seattle Center
Wed 05:44:51 PM 45.3119 -116.2739 163° South 465 535 41,000 541 Climbing Seattle Center
Wed 05:45:52 PM 45.2000 -116.2206 161° South 464 534 41,000  Level Seattle Center
Wed 05:46:54 PM 45.0708 -116.1411 157° South 471 542 41,000  Level Seattle Center
Wed 05:47:55 PM 44.9228 -116.0575 158° South 476 548 41,000  Level Seattle Center
Wed 05:48:56 PM 44.7978 -115.9875 158° South 479 551 41,000  Level Seattle Center
Wed 05:49:58 PM 44.6717 -115.9169 158° South 484 557 41,000  Level Seattle Center
Wed 05:50:59 PM 44.5439 -115.8436 158° South 488 562 41,000  Level Seattle Center
Wed 05:52:00 PM 44.4150 -115.7706 158° South 490 564 41,000  Level Seattle Center
Wed 05:53:24 PM 44.2356 -115.6750 159° South 489 563 41,000  Level Salt Lake Center
Wed 05:54:26 PM 44.1061 -115.6069 159° South 492 566 41,000  Level Salt Lake Center
Wed 05:55:28 PM 43.9781 -115.5372 159° South 492 566 41,000  Level Salt Lake Center
Wed 05:56:30 PM 43.8506 -115.4669 158° South 494 568 41,000  Level Salt Lake Center
Wed 05:57:32 PM 43.7228 -115.3986 159° South 493 567 41,000  Level Salt Lake Center
Wed 05:58:34 PM 43.5953 -115.3306 159° South 492 566 41,000  Level Salt Lake Center
Wed 05:59:37 PM 43.4428 -115.2489 159° South 492 566 41,000  Level Salt Lake Center
Wed 06:00:39 PM 43.3167 -115.1825 159° South 489 563 41,000  Level Salt Lake Center
Wed 06:01:41 PM 43.1908 -115.1167 159° South 488 562 41,000  Level Salt Lake Center
Wed 06:02:43 PM 43.0650 -115.0500 159° South 487 560 41,000  Level Salt Lake Center
Wed 06:03:45 PM 42.9381 -114.9836 159° South 488 562 41,000  Level Salt Lake Center
Wed 06:04:47 PM 42.8106 -114.9169 159° South 489 563 41,000  Level Salt Lake Center
Wed 06:05:49 PM 42.6553 -114.8636 166° South 485 558 41,000  Level Salt Lake Center
Wed 06:06:51 PM 42.5383 -114.8522 176° South 477 549 41,000  Level Salt Lake Center
Wed 06:07:53 PM 42.3803 -114.8369 176° South 477 549 41,000  Level Salt Lake Center
Wed 06:08:55 PM 42.2481 -114.8231 176° South 477 549 41,000  Level Salt Lake Center
Wed 06:09:57 PM 42.1153 -114.8108 176° South 478 550 41,000  Level Salt Lake Center
Wed 06:10:59 PM 41.9767 -114.7969 176° South 479 551 41,000  Level Salt Lake Center
Wed 06:12:01 PM 41.8481 -114.7831 175° South 479 551 41,000  Level Salt Lake Center
Wed 06:13:03 PM 41.7019 -114.7706 176° South 472 543 41,000  Level Salt Lake Center
Wed 06:14:05 PM 41.5608 -114.7572 176° South 474 545 41,000  Level Salt Lake Center
Wed 06:15:07 PM 41.4300 -114.7450 176° South 474 545 41,000  Level Salt Lake Center
Wed 06:16:09 PM 41.3014 -114.7319 176° South 469 540 41,000  Level Salt Lake Center
Wed 06:17:11 PM 41.1722 -114.7203 176° South 469 540 41,000  Level Salt Lake Center
Wed 06:18:13 PM 41.0344 -114.7064 176° South 469 540 41,000  Level Salt Lake Center
Wed 06:19:15 PM 40.8878 -114.6931 176° South 469 540 41,000  Level Salt Lake Center
Wed 06:20:18 PM 40.7581 -114.6806 176° South 468 539 41,000  Level Salt Lake Center
Wed 06:21:20 PM 40.6286 -114.6689 176° South 469 540 41,000  Level Salt Lake Center
Wed 06:22:22 PM 40.4969 -114.6553 176° South 470 541 41,000  Level Salt Lake Center
Wed 06:23:24 PM 40.3672 -114.6444 176° South 469 540 41,000  Level Salt Lake Center
Wed 06:24:26 PM 40.2369 -114.6317 176° South 470 541 41,000  Level Salt Lake Center
Wed 06:25:28 PM 40.0819 -114.6169 176° South 469 540 41,000  Level Salt Lake Center
Wed 06:26:30 PM 39.9517 -114.6053 176° South 469 540 41,000  Level Salt Lake Center
Wed 06:27:32 PM 39.8225 -114.5931 176° South 469 540 41,000  Level Salt Lake Center
Wed 06:28:34 PM 39.6794 -114.5800 176° South 468 539 41,000  Level Salt Lake Center
Wed 06:29:36 PM 39.5547 -114.5689 176° South 468 539 41,000  Level Salt Lake Center
Wed 06:30:38 PM 39.4083 -114.5564 176° South 468 539 41,000  Level Salt Lake Center
Wed 06:31:41 PM 39.2858 -114.5281 170° South 476 548 41,000  Level Salt Lake Center
Wed 06:32:43 PM 39.1581 -114.4247 148° Southeast 491 565 41,000  Level Salt Lake Center
Wed 06:33:45 PM 39.0442 -114.3294 147° Southeast 489 563 41,000  Level Salt Lake Center
Wed 06:34:47 PM 38.9283 -114.2325 147° Southeast 495 570 41,000  Level Salt Lake Center
Wed 06:36:33 PM 38.7217 -114.0569 146° Southeast 495 570 41,000  Level Los Angeles Center
Wed 06:37:35 PM 38.6075 -113.9633 147° Southeast 494 568 41,000  Level Los Angeles Center
Wed 06:38:55 PM 38.4469 -113.8292 147° Southeast 489 563 41,000  Level Salt Lake Center
Wed 06:39:57 PM 38.3303 -113.7342 147° Southeast 499 574 41,000  Level Salt Lake Center
Wed 06:40:59 PM 38.2142 -113.6386 147° Southeast 498 573 41,000  Level Salt Lake Center
Wed 06:42:01 PM 38.0992 -113.5436 147° Southeast 498 573 41,000  Level Salt Lake Center
Wed 06:43:03 PM 37.9825 -113.4475 147° Southeast 498 573 41,000  Level Salt Lake Center
Wed 06:44:06 PM 37.8656 -113.3536 148° Southeast 498 573 41,000  Level Salt Lake Center
Wed 06:45:08 PM 37.7147 -113.2744 157° South 497 572 41,000  Level Salt Lake Center
Wed 06:46:10 PM 37.5903 -113.2097 158° South 493 567 41,000  Level Salt Lake Center
Wed 06:46:55 PM 37.4922 -113.1533 155° Southeast 492 566 41,000 -168 Level Los Angeles Center
Wed 06:47:57 PM 37.3689 -113.0842 156° South 493 567 40,700 -629 Descending Los Angeles Center
Wed 06:48:59 PM 37.2422 -113.0156 157° South 495 570 39,700 -968 Descending Los Angeles Center
Wed 06:50:01 PM 37.1136 -112.9453 156° South 504 580 38,700 -1,008 Descending Los Angeles Center
Wed 06:51:04 PM 36.9592 -112.8608 156° South 505 581 37,600 -1,008 Descending Los Angeles Center
Wed 06:52:06 PM 36.8306 -112.7897 156° South 506 582 36,600 -774 Descending Los Angeles Center
Wed 06:53:08 PM 36.7003 -112.7197 157° South 507 583 36,000 -581 Descending Los Angeles Center
Wed 06:54:10 PM 36.5733 -112.6511 157° South 504 580 35,400 -1,452 Descending Los Angeles Center
Wed 06:55:12 PM 36.4436 -112.5808 156° South 504 580 33,000 -1,161 Descending Los Angeles Center
Wed 06:56:14 PM 36.2906 -112.4981 156° South 501 577 33,000  Level Los Angeles Center
Wed 06:57:17 PM 36.1647 -112.4344 158° South 494 568 33,000 -672 Level Los Angeles Center
Wed 06:58:19 PM 36.0314 -112.3972 167° South 495 570 31,600 -1,887 Descending Los Angeles Center
Wed 06:59:21 PM 35.8808 -112.4017 181° South 501 577 29,100 -1,258 Descending Los Angeles Center
Wed 07:00:23 PM 35.7394 -112.4058 181° South 506 582 29,000 -48 Descending Los Angeles Center
Wed 07:01:25 PM 35.6011 -112.4156 183° South 499 574 29,000  Level Los Angeles Center
Wed 07:02:28 PM 35.4631 -112.4275 184° South 495 570 29,000  Level Los Angeles Center
Wed 07:03:30 PM 35.3250 -112.4194 177° South 496 571 29,000  Level Los Angeles Center
Wed 07:04:02 PM 35.2411 -112.4019 170° South 498 573 29,000  Level Albuquerque Center
Wed 07:05:04 PM 35.1081 -112.3719 170° South 493 567 29,000 -823 Level Albuquerque Center
Wed 07:06:06 PM 34.9844 -112.3467 170° South 470 541 27,300 -1,790 Descending Albuquerque Center
Wed 07:07:08 PM 34.8636 -112.3222 171° South 447 514 25,300 -2,195 Descending Albuquerque Center
Wed 07:08:09 PM 34.7297 -112.2928 170° South 422 486 22,800 -2,341 Descending Albuquerque Center
Wed 07:09:11 PM 34.6189 -112.2683 170° South 410 472 20,500 -2,177 Descending Albuquerque Center
Wed 07:10:13 PM 34.5117 -112.2444 170° South 400 460 18,300 -1,694 Descending Albuquerque Center
Wed 07:11:15 PM 34.4114 -112.2211 169° South 378 435 17,000 -871 Descending Albuquerque Center
Wed 07:12:17 PM 34.3214 -112.1975 168° South 345 397 16,500 -878 Descending Albuquerque Center
Wed 07:13:18 PM 34.2306 -112.1742 168° South 338 389 15,200 -1,366 Descending Albuquerque Center
Wed 07:14:20 PM 34.1211 -112.1469 168° South 337 388 13,700 -1,065 Descending Albuquerque Center
Wed 07:15:22 PM 34.0317 -112.1242 168° South 335 386 13,000 -968 Descending Albuquerque Center
Wed 07:16:24 PM 33.9517 -112.1031 168° South 303 349 11,700 -1,355 Descending Albuquerque Center
Wed 07:17:26 PM 33.8736 -112.0825 168° South 294 338 10,200 -829 Descending Albuquerque Center
Wed 07:18:27 PM 33.7969 -112.0642 169° South 287 330 10,000 -244 Descending Albuquerque Center
Wed 07:19:29 PM 33.7192 -112.0461 169° South 286 329 9,700 -484 Descending Albuquerque Center
Wed 07:20:31 PM 33.6228 -112.0311 173° South 290 334 9,000 -435 Descending Albuquerque Center
Wed 07:21:33 PM 33.5539 -112.0064 163° South 261 300 8,800 -878 Descending Albuquerque Center
Wed 07:22:34 PM 33.5247 -111.9322 115° Southeast 261 300 7,200 -878 Descending Albuquerque Center
Wed 07:23:36 PM 33.5244 -111.8647 90° East 205 236 7,000 -581 Descending Albuquerque Center
Wed 07:24:38 PM 33.5244 -111.7972 90° East 202 232 6,000 -1,016 Descending Albuquerque Center
Wed 07:25:40 PM 33.4767 -111.7794 163° South 189 217 4,900 -976 Descending Albuquerque Center
Wed 07:26:41 PM 33.4367 -111.8178 219° Southwest 171 197 4,000 -683 Descending Albuquerque Center
Wed 07:27:43 PM 33.4319 -111.8681 264° West 160 184 3,500 -677 Descending Albuquerque Center
Wed 07:28:45 PM 33.4308 -111.9156 268° West 146 168 2,600 -823 Descending Albuquerque Center
Wed 07:29:47 PM 33.4333 -111.9667 273° West 133 153 1,800 -774 Descending Phoenix TRACON

Login

Don't have an account? Register now (free) for customized features, flight alerts, and more!